Cse Prosperity Expr. — 3EES5 — position and weather

sailwx.info

Track history (hours):
 
Tides and Currents Weather Stations Pressure Air Temp Water Temp Dewpoint Dewpoint Depression Visibility Wind Speed Wind Dir Waves Ship Positions

Cse Prosperity Expr.

Last reported at 2015-Jul-06 23:33 UTC. Time now 2015-Jul-07 00:16 UTC.
Position N 34°14' E 135°07'.

Length 168 m; draft 5.7 m.

Type: Cargo ship. MMSI: 371801000.

Date/timePositionNaut miles runAvg speedWind from/ knotsBaromVisibWave heightAir tempDewpointWater temp
2015-Jul-06 23:33N 34°14' E 135°07'0 0.0
2015-Jul-06 22:33N 34°14' E 135°07'0 0.0
2015-Jul-06 21:33N 34°14' E 135°07'0 0.0
2015-Jul-06 20:33N 34°14' E 135°07'0 0.0
2015-Jul-06 19:33N 34°14' E 135°07'0 0.0
2015-Jul-06 18:30N 34°14' E 135°07'0 0.0
2015-Jul-06 17:33N 34°14' E 135°07'0 0.0
2015-Jul-06 16:33N 34°14' E 135°07'0 0.0
2015-Jul-06 15:33N 34°14' E 135°07'0 0.0
2015-Jul-06 14:33N 34°14' E 135°07'0 0.0
2015-Jul-06 13:30N 34°14' E 135°07'0 0.0
2015-Jul-06 12:33N 34°14' E 135°07'0 0.0
2015-Jul-06 11:33N 34°14' E 135°07'0 0.0
2015-Jul-06 10:33N 34°14' E 135°07'0 0.0
2015-Jul-06 09:24N 34°14' E 135°07'0 0.0
2015-Jul-06 08:33N 34°14' E 135°07'0 0.0
2015-Jul-06 07:33N 34°14' E 135°07'0 0.0
2015-Jul-06 06:33N 34°14' E 135°07'0 0.3
2015-Jul-06 05:34N 34°14' E 135°07'2 1.5
2015-Jul-06 04:25N 34°14' E 135°05'0 0.1
2015-Jul-06 03:31N 34°14' E 135°05'0 0.1
2015-Jul-06 02:28N 34°14' E 135°05'0 0.0
2015-Jul-06 01:31N 34°14' E 135°05'0 0.0
2015-Jul-06 00:31N 34°14' E 135°05'0 0.0
2015-Jul-05 23:28N 34°14' E 135°05'0 0.0
2015-Jul-05 22:31N 34°14' E 135°05'0 0.1
2015-Jul-05 21:31N 34°14' E 135°05'0 0.1
2015-Jul-05 20:25N 34°14' E 135°05'0 0.0
2015-Jul-05 19:31N 34°14' E 135°05'0 0.1
2015-Jul-05 18:31N 34°14' E 135°05'0 0.1
2015-Jul-05 17:31N 34°14' E 135°05'0 0.1
2015-Jul-05 16:31N 34°14' E 135°05'0 0.0
2015-Jul-05 15:31N 34°14' E 135°05'0 0.1
2015-Jul-05 14:31N 34°14' E 135°05'0 0.0
2015-Jul-05 13:31N 34°14' E 135°05'0 0.0
2015-Jul-05 12:31N 34°14' E 135°05'0 0.0
2015-Jul-05 11:31N 34°14' E 135°05'0 0.0
2015-Jul-05 10:31N 34°14' E 135°05'0 0.0
2015-Jul-05 09:31N 34°14' E 135°05'0 0.1
2015-Jul-05 08:33N 34°14' E 135°05'0 0.3
2015-Jul-05 07:33N 34°14' E 135°05'8 7.9
2015-Jul-05 06:33N 34°07' E 135°01'  
2015-Jul-02 02:26N 22°44' E 120°08'1011.3
2015-Jul-02 01:33N 22°37' E 120°16'2 2.0
2015-Jul-02 00:24N 22°36' E 120°18'0 0.0
2015-Jul-01 23:33N 22°36' E 120°18'0 0.0
2015-Jul-01 22:33N 22°36' E 120°18'0 0.0
2015-Jul-01 21:33N 22°36' E 120°18'0 0.0
2015-Jul-01 20:33N 22°36' E 120°18'0 0.0
2015-Jul-01 19:33N 22°36' E 120°18'0 0.0
2015-Jul-01 18:33N 22°36' E 120°18'0 0.0
2015-Jul-01 17:33N 22°36' E 120°18'0 0.0
2015-Jul-01 16:33N 22°36' E 120°18'0 0.0
2015-Jul-01 15:32N 22°36' E 120°18'0 0.0
2015-Jul-01 14:32N 22°36' E 120°18'0 0.0
2015-Jul-01 13:33N 22°36' E 120°18'0 0.0
2015-Jul-01 12:33N 22°36' E 120°18'0 0.0
2015-Jul-01 11:33N 22°36' E 120°18'0 0.0
2015-Jul-01 10:33N 22°36' E 120°18'0 0.0
2015-Jul-01 08:26N 22°36' E 120°18'0 0.0
2015-Jul-01 06:15N 22°36' E 120°18'0 0.0
2015-Jul-01 03:12N 22°36' E 120°18'0 0.0
2015-Jul-01 02:06N 22°36' E 120°18'0 0.0
2015-Jul-01 01:33N 22°36' E 120°18'6 6.2
2015-Jul-01 00:33N 22°38' E 120°11'8 7.8
2015-Jun-30 23:33N 22°44' E 120°07'  
2015-Jun-27 01:33N 34°01' E 134°58'1212.2
2015-Jun-27 00:34N 34°13' E 135°04'3 3.1
2015-Jun-26 23:33N 34°14' E 135°07'  
Track history (hours):
 
Tides and Currents Weather Stations Pressure Air Temp Water Temp Dewpoint Dewpoint Depression Visibility Wind Speed Wind Dir Waves Ship Positions

Cse Prosperity Expr.

Last reported at 2015-Jul-06 23:33 UTC. Time now 2015-Jul-07 00:16 UTC.
Position N 34°14' E 135°07'.

Length 168 m; draft 5.7 m.

Type: Cargo ship. MMSI: 371801000.

Date/timePositionNaut miles runAvg speedWind from/ knotsBaromVisibWave heightAir tempDewpointWater temp
2015-Jul-06 23:33N 34°14' E 135°07'0 0.0
2015-Jul-06 22:33N 34°14' E 135°07'0 0.0
2015-Jul-06 21:33N 34°14' E 135°07'0 0.0
2015-Jul-06 20:33N 34°14' E 135°07'0 0.0
2015-Jul-06 19:33N 34°14' E 135°07'0 0.0
2015-Jul-06 18:30N 34°14' E 135°07'0 0.0
2015-Jul-06 17:33N 34°14' E 135°07'0 0.0
2015-Jul-06 16:33N 34°14' E 135°07'0 0.0
2015-Jul-06 15:33N 34°14' E 135°07'0 0.0
2015-Jul-06 14:33N 34°14' E 135°07'0 0.0
2015-Jul-06 13:30N 34°14' E 135°07'0 0.0
2015-Jul-06 12:33N 34°14' E 135°07'0 0.0
2015-Jul-06 11:33N 34°14' E 135°07'0 0.0
2015-Jul-06 10:33N 34°14' E 135°07'0 0.0
2015-Jul-06 09:24N 34°14' E 135°07'0 0.0
2015-Jul-06 08:33N 34°14' E 135°07'0 0.0
2015-Jul-06 07:33N 34°14' E 135°07'0 0.0
2015-Jul-06 06:33N 34°14' E 135°07'0 0.3
2015-Jul-06 05:34N 34°14' E 135°07'2 1.5
2015-Jul-06 04:25N 34°14' E 135°05'0 0.1
2015-Jul-06 03:31N 34°14' E 135°05'0 0.1
2015-Jul-06 02:28N 34°14' E 135°05'0 0.0
2015-Jul-06 01:31N 34°14' E 135°05'0 0.0
2015-Jul-06 00:31N 34°14' E 135°05'0 0.0
2015-Jul-05 23:28N 34°14' E 135°05'0 0.0
2015-Jul-05 22:31N 34°14' E 135°05'0 0.1
2015-Jul-05 21:31N 34°14' E 135°05'0 0.1
2015-Jul-05 20:25N 34°14' E 135°05'0 0.0
2015-Jul-05 19:31N 34°14' E 135°05'0 0.1
2015-Jul-05 18:31N 34°14' E 135°05'0 0.1
2015-Jul-05 17:31N 34°14' E 135°05'0 0.1
2015-Jul-05 16:31N 34°14' E 135°05'0 0.0
2015-Jul-05 15:31N 34°14' E 135°05'0 0.1
2015-Jul-05 14:31N 34°14' E 135°05'0 0.0
2015-Jul-05 13:31N 34°14' E 135°05'0 0.0
2015-Jul-05 12:31N 34°14' E 135°05'0 0.0
2015-Jul-05 11:31N 34°14' E 135°05'0 0.0
2015-Jul-05 10:31N 34°14' E 135°05'0 0.0
2015-Jul-05 09:31N 34°14' E 135°05'0 0.1
2015-Jul-05 08:33N 34°14' E 135°05'0 0.3
2015-Jul-05 07:33N 34°14' E 135°05'8 7.9
2015-Jul-05 06:33N 34°07' E 135°01'  
2015-Jul-02 02:26N 22°44' E 120°08'1011.3
2015-Jul-02 01:33N 22°37' E 120°16'2 2.0
2015-Jul-02 00:24N 22°36' E 120°18'0 0.0
2015-Jul-01 23:33N 22°36' E 120°18'0 0.0
2015-Jul-01 22:33N 22°36' E 120°18'0 0.0
2015-Jul-01 21:33N 22°36' E 120°18'0 0.0
2015-Jul-01 20:33N 22°36' E 120°18'0 0.0
2015-Jul-01 19:33N 22°36' E 120°18'0 0.0
2015-Jul-01 18:33N 22°36' E 120°18'0 0.0
2015-Jul-01 17:33N 22°36' E 120°18'0 0.0
2015-Jul-01 16:33N 22°36' E 120°18'0 0.0
2015-Jul-01 15:32N 22°36' E 120°18'0 0.0
2015-Jul-01 14:32N 22°36' E 120°18'0 0.0
2015-Jul-01 13:33N 22°36' E 120°18'0 0.0
2015-Jul-01 12:33N 22°36' E 120°18'0 0.0
2015-Jul-01 11:33N 22°36' E 120°18'0 0.0
2015-Jul-01 10:33N 22°36' E 120°18'0 0.0
2015-Jul-01 08:26N 22°36' E 120°18'0 0.0
2015-Jul-01 06:15N 22°36' E 120°18'0 0.0
2015-Jul-01 03:12N 22°36' E 120°18'0 0.0
2015-Jul-01 02:06N 22°36' E 120°18'0 0.0
2015-Jul-01 01:33N 22°36' E 120°18'6 6.2
2015-Jul-01 00:33N 22°38' E 120°11'8 7.8
2015-Jun-30 23:33N 22°44' E 120°07'  
2015-Jun-27 01:33N 34°01' E 134°58'1212.2
2015-Jun-27 00:34N 34°13' E 135°04'3 3.1
2015-Jun-26 23:33N 34°14' E 135°07'  

Dump ship's entire track history